createdAt,value
2023-02-23T00:02:04.888Z,1.13
2023-02-23T00:04:31.758Z,1.33
2023-02-23T00:06:58.678Z,1.10
2023-02-23T00:09:25.641Z,1.43
2023-02-23T00:11:57.502Z,1.17
2023-02-23T00:14:31.153Z,0.90
2023-02-23T00:16:59.948Z,1.37
2023-02-23T00:19:27.541Z,1.30
2023-02-23T00:21:54.646Z,2.30
2023-02-23T00:24:22.133Z,0.70
2023-02-23T00:26:51.341Z,1.40
2023-02-23T00:29:20.734Z,1.27
2023-02-23T00:31:49.483Z,2.60
2023-02-23T00:34:21.671Z,1.03
2023-02-23T00:36:56.144Z,1.17
2023-02-23T00:39:29.099Z,1.30
2023-02-23T00:41:57.072Z,1.33
2023-02-23T00:44:24.913Z,1.47
2023-02-23T00:46:52.626Z,1.80
2023-02-23T00:49:22.086Z,1.70
2023-02-23T00:51:49.177Z,0.93
2023-02-23T00:54:17.127Z,1.27
2023-02-23T00:56:44.276Z,0.90
2023-02-23T00:59:11.615Z,0.63
2023-02-23T01:01:41.939Z,0.83
2023-02-23T01:04:09.808Z,1.27
2023-02-23T01:06:41.057Z,1.07
2023-02-23T01:09:10.552Z,0.53
2023-02-23T01:11:37.467Z,1.00
2023-02-23T01:14:04.339Z,0.97
2023-02-23T01:16:33.918Z,0.63
2023-02-23T01:19:04.059Z,1.00
2023-02-23T01:21:34.280Z,0.90
2023-02-23T01:24:02.404Z,0.90
2023-02-23T01:26:35.229Z,1.97
2023-02-23T01:29:05.555Z,1.80
2023-02-23T01:31:32.485Z,0.93
2023-02-23T01:34:03.642Z,1.23
2023-02-23T01:36:37.550Z,1.10
2023-02-23T01:39:07.647Z,1.10
2023-02-23T01:41:36.911Z,1.63
2023-02-23T01:44:28.410Z,1.17
2023-02-23T01:46:55.343Z,1.07
2023-02-23T01:49:26.113Z,1.27
2023-02-23T01:52:02.453Z,1.00
2023-02-23T01:54:38.810Z,0.70
2023-02-23T01:57:07.720Z,1.43
2023-02-23T01:59:49.577Z,1.17
2023-02-23T02:02:23.400Z,0.53
2023-02-23T02:04:52.278Z,1.07
2023-02-23T02:07:23.948Z,0.83
2023-02-23T02:10:11.368Z,1.33
2023-02-23T02:12:52.440Z,1.27
2023-02-23T02:15:22.460Z,0.90
2023-02-23T02:17:56.496Z,0.97
2023-02-23T02:20:32.770Z,1.13
2023-02-23T02:23:24.704Z,0.70
2023-02-23T02:25:51.419Z,0.70
2023-02-23T02:29:11.667Z,1.07
2023-02-23T02:31:50.277Z,0.77
2023-02-23T02:34:38.133Z,0.70
2023-02-23T02:37:27.052Z,0.70
2023-02-23T02:40:14.949Z,0.70
2023-02-23T02:43:10.121Z,1.03
2023-02-23T02:46:08.664Z,0.30
2023-02-23T02:48:59.346Z,1.37
2023-02-23T02:51:36.574Z,1.13
2023-02-23T02:54:15.470Z,0.87
2023-02-23T02:56:44.498Z,1.63
2023-02-23T02:59:34.484Z,0.53
2023-02-23T03:02:21.323Z,0.93
2023-02-23T03:05:06.851Z,1.90
2023-02-23T03:08:15.439Z,0.97
2023-02-23T03:11:43.285Z,1.07
2023-02-23T03:14:40.697Z,0.70
2023-02-23T03:17:36.946Z,0.73
2023-02-23T03:20:39.426Z,1.63
2023-02-23T03:23:45.961Z,0.97
2023-02-23T03:26:35.141Z,0.60
2023-02-23T03:29:35.910Z,1.27
2023-02-23T03:32:27.398Z,0.50
2023-02-23T03:35:25.705Z,1.33
2023-02-23T03:38:25.775Z,0.53
2023-02-23T03:41:13.722Z,1.07
2023-02-23T03:44:07.230Z,0.93
2023-02-23T03:46:54.775Z,1.83
2023-02-23T03:49:42.422Z,0.83
2023-02-23T03:52:37.004Z,1.53
2023-02-23T03:55:31.148Z,1.40
2023-02-23T03:58:21.171Z,1.20
2023-02-23T04:01:08.700Z,1.23
2023-02-23T04:03:57.922Z,1.77
2023-02-23T04:06:46.992Z,0.80
2023-02-23T04:09:33.042Z,0.70
2023-02-23T04:13:09.110Z,1.17
2023-02-23T04:15:51.152Z,1.60
2023-02-23T04:18:29.816Z,1.47
2023-02-23T04:20:58.527Z,0.83
2023-02-23T04:23:25.912Z,2.10
2023-02-23T04:25:53.510Z,1.27
2023-02-23T04:28:25.129Z,1.40
2023-02-23T04:30:52.891Z,1.20
2023-02-23T04:33:22.188Z,1.03
2023-02-23T04:35:49.263Z,0.97
2023-02-23T04:38:16.229Z,1.00
2023-02-23T04:40:43.119Z,1.87
2023-02-23T04:43:13.194Z,1.37
2023-02-23T04:45:40.122Z,1.20
2023-02-23T04:48:07.294Z,1.27
2023-02-23T04:50:34.514Z,1.03
2023-02-23T04:53:01.349Z,1.07
2023-02-23T04:55:28.704Z,1.17
2023-02-23T04:58:00.980Z,1.40
2023-02-23T05:00:29.507Z,1.17
2023-02-23T05:02:57.460Z,1.10
2023-02-23T05:05:24.365Z,0.73
2023-02-23T05:07:51.240Z,1.30
2023-02-23T05:10:18.252Z,1.60
2023-02-23T05:12:45.080Z,1.63
2023-02-23T05:15:12.121Z,1.60
2023-02-23T05:17:42.151Z,2.27
2023-02-23T05:20:13.580Z,1.47
2023-02-23T05:22:40.796Z,0.60
2023-02-23T05:25:10.254Z,1.60
2023-02-23T05:27:37.344Z,0.77
2023-02-23T05:30:05.830Z,0.90
2023-02-23T05:32:32.738Z,1.63
2023-02-23T05:35:00.877Z,1.43
2023-02-23T05:37:27.703Z,1.37
2023-02-23T05:39:54.636Z,1.87
2023-02-23T05:42:21.486Z,1.00
2023-02-23T05:44:48.767Z,1.47
2023-02-23T05:47:15.593Z,1.80
2023-02-23T05:49:42.778Z,2.10
2023-02-23T05:52:09.620Z,1.27
2023-02-23T05:54:36.464Z,1.10
2023-02-23T05:57:03.374Z,1.50
2023-02-23T05:59:30.244Z,1.50
2023-02-23T06:01:57.082Z,1.63
2023-02-23T06:04:24.314Z,1.40
2023-02-23T06:06:51.232Z,1.67
2023-02-23T06:09:18.045Z,1.17
2023-02-23T06:11:44.925Z,0.83
2023-02-23T06:14:11.981Z,1.80
2023-02-23T06:16:39.457Z,2.10
2023-02-23T06:19:09.303Z,2.50
2023-02-23T06:21:36.150Z,1.87
2023-02-23T06:24:03.705Z,1.13
2023-02-23T06:26:30.675Z,1.10
2023-02-23T06:28:57.551Z,1.33
2023-02-23T06:31:24.396Z,1.23
2023-02-23T06:33:51.389Z,1.30
2023-02-23T06:36:18.275Z,1.27
2023-02-23T06:38:45.806Z,1.43
2023-02-23T06:41:13.409Z,2.33
2023-02-23T06:43:40.399Z,1.20
2023-02-23T06:46:07.512Z,1.50
2023-02-23T06:48:35.577Z,1.33
2023-02-23T06:51:02.470Z,1.87
2023-02-23T06:53:30.538Z,0.93
2023-02-23T06:55:57.636Z,1.77
2023-02-23T06:58:24.528Z,1.67
2023-02-23T07:00:51.716Z,1.50
2023-02-23T07:03:19.362Z,1.53
2023-02-23T07:05:46.225Z,1.33
2023-02-23T07:08:13.087Z,1.87
2023-02-23T07:10:39.953Z,1.37
2023-02-23T07:13:06.866Z,1.23
2023-02-23T07:15:36.177Z,1.03
2023-02-23T07:18:03.217Z,4.37
2023-02-23T07:20:31.388Z,0.93
2023-02-23T07:22:58.227Z,1.87
2023-02-23T07:25:25.038Z,0.87
2023-02-23T07:27:51.944Z,1.70
2023-02-23T07:30:19.444Z,0.90
2023-02-23T07:32:46.460Z,1.17
2023-02-23T07:35:13.292Z,1.53
2023-02-23T07:37:40.133Z,2.10
2023-02-23T07:40:07.674Z,1.37
2023-02-23T07:42:34.516Z,1.63
2023-02-23T07:45:01.673Z,1.57
2023-02-23T07:47:31.599Z,2.37
2023-02-23T07:50:08.047Z,0.73
2023-02-23T07:52:34.905Z,1.60
2023-02-23T07:55:01.782Z,1.50
2023-02-23T07:57:28.649Z,2.07
2023-02-23T07:59:55.500Z,1.83
2023-02-23T08:02:22.364Z,0.60
2023-02-23T08:04:49.354Z,1.10
2023-02-23T08:07:16.365Z,1.37
2023-02-23T08:09:43.188Z,1.90
2023-02-23T08:12:10.603Z,1.23
2023-02-23T08:14:37.552Z,1.50
2023-02-23T08:17:04.435Z,2.50
2023-02-23T08:19:31.562Z,0.90
2023-02-23T08:21:58.624Z,2.13
2023-02-23T08:24:26.608Z,0.87
2023-02-23T08:26:53.539Z,0.80
2023-02-23T08:29:21.430Z,0.90
2023-02-23T08:31:48.539Z,1.27
2023-02-23T08:34:15.494Z,1.63
2023-02-23T08:36:45.714Z,2.43
2023-02-23T08:39:13.542Z,2.10
2023-02-23T08:41:41.882Z,1.10
2023-02-23T08:44:08.837Z,0.83
2023-02-23T08:46:35.700Z,1.53
2023-02-23T08:49:04.718Z,1.70
2023-02-23T08:51:32.764Z,1.47
2023-02-23T08:53:59.634Z,1.03
2023-02-23T08:56:27.119Z,1.47
2023-02-23T08:58:54.329Z,0.83
2023-02-23T09:01:24.788Z,0.87
2023-02-23T09:03:51.744Z,0.73
2023-02-23T09:06:21.969Z,0.93
2023-02-23T09:08:49.681Z,1.00
2023-02-23T09:11:16.571Z,1.20
2023-02-23T09:13:43.925Z,1.10
2023-02-23T09:16:11.132Z,2.23
2023-02-23T09:18:39.037Z,0.37
2023-02-23T09:21:08.584Z,0.93
2023-02-23T09:23:36.278Z,1.30
2023-02-23T09:26:07.853Z,1.50
2023-02-23T09:28:35.785Z,0.97
2023-02-23T09:31:14.371Z,1.10
2023-02-23T09:33:41.485Z,1.57
2023-02-23T09:36:19.954Z,1.87
2023-02-23T09:38:48.859Z,1.90
2023-02-23T09:41:33.797Z,1.70
2023-02-23T09:44:21.482Z,1.70
2023-02-23T09:46:51.514Z,0.97
2023-02-23T09:49:23.041Z,1.00
2023-02-23T09:51:57.518Z,0.83
2023-02-23T09:54:28.417Z,1.30
2023-02-23T09:56:58.227Z,2.03
2023-02-23T09:59:26.422Z,1.33
2023-02-23T10:02:14.724Z,1.70
2023-02-23T10:04:48.399Z,1.57
2023-02-23T10:07:40.339Z,1.23
2023-02-23T10:10:31.845Z,1.17
2023-02-23T10:13:01.466Z,1.20
2023-02-23T10:15:43.889Z,0.97
2023-02-23T10:18:46.688Z,1.37
2023-02-23T10:21:38.810Z,1.60
2023-02-23T10:24:31.598Z,1.10
2023-02-23T10:27:09.796Z,0.57
2023-02-23T10:29:46.120Z,1.17
2023-02-23T10:32:17.130Z,0.70
2023-02-23T10:34:46.924Z,1.77
2023-02-23T10:37:15.553Z,1.40
2023-02-23T10:39:43.153Z,1.47
2023-02-23T10:42:17.092Z,2.20
2023-02-23T10:44:45.517Z,1.03
2023-02-23T10:47:23.265Z,0.77
2023-02-23T10:49:55.501Z,1.27
2023-02-23T10:52:30.624Z,0.77
2023-02-23T10:54:59.015Z,1.00
2023-02-23T10:57:30.036Z,1.30
2023-02-23T11:00:19.379Z,1.27
2023-02-23T11:02:49.115Z,0.93
2023-02-23T11:05:47.281Z,0.77
2023-02-23T11:08:33.730Z,0.93
2023-02-23T11:11:09.451Z,1.43
2023-02-23T11:13:42.450Z,1.47
2023-02-23T11:16:14.927Z,1.33
2023-02-23T11:19:01.044Z,1.80
2023-02-23T11:21:35.289Z,1.47
2023-02-23T11:24:24.325Z,1.53
2023-02-23T11:26:57.900Z,0.67
2023-02-23T11:29:36.668Z,0.80
2023-02-23T11:32:10.162Z,1.97
2023-02-23T11:34:41.453Z,1.70
2023-02-23T11:37:18.661Z,1.40
2023-02-23T11:39:57.419Z,1.00
2023-02-23T11:42:33.502Z,1.30
2023-02-23T11:45:32.250Z,1.10
2023-02-23T11:48:02.158Z,1.83
2023-02-23T11:50:36.569Z,0.80
2023-02-23T11:53:14.326Z,1.23
2023-02-23T11:55:52.466Z,1.87
2023-02-23T11:58:19.301Z,1.53
2023-02-23T12:01:00.060Z,1.03
2023-02-23T12:03:29.843Z,1.77
2023-02-23T12:05:59.308Z,2.20
2023-02-23T12:08:53.223Z,2.57
2023-02-23T12:11:25.574Z,1.03
2023-02-23T12:14:04.167Z,1.27
2023-02-23T12:16:55.408Z,1.13
2023-02-23T12:19:45.300Z,1.27
2023-02-23T12:22:17.258Z,1.63
2023-02-23T12:25:05.055Z,1.13
2023-02-23T12:27:34.925Z,1.40
2023-02-23T12:30:25.156Z,1.93
2023-02-23T12:33:12.449Z,1.43
2023-02-23T12:35:51.545Z,1.83
2023-02-23T12:38:36.399Z,1.80
2023-02-23T12:41:14.463Z,1.50
2023-02-23T12:43:57.716Z,2.00
2023-02-23T12:46:34.769Z,1.93
2023-02-23T12:49:17.464Z,1.37
2023-02-23T12:51:55.646Z,1.53
2023-02-23T12:54:22.752Z,1.37
2023-02-23T12:57:26.270Z,1.57
2023-02-23T13:00:39.322Z,1.93
2023-02-23T13:03:11.972Z,1.20
2023-02-23T13:05:57.778Z,1.03
2023-02-23T13:08:38.586Z,1.40
2023-02-23T13:11:14.294Z,0.97
2023-02-23T13:13:50.832Z,1.07
2023-02-23T13:16:33.313Z,1.47
2023-02-23T13:19:23.146Z,2.17
2023-02-23T13:22:11.079Z,1.83
2023-02-23T13:24:42.476Z,1.60
2023-02-23T13:27:34.888Z,2.10
2023-02-23T13:30:02.953Z,1.33
2023-02-23T13:32:33.340Z,1.13
2023-02-23T13:35:02.486Z,1.23
2023-02-23T13:37:35.789Z,1.73
2023-02-23T13:40:21.634Z,1.33
2023-02-23T13:43:23.243Z,1.23
2023-02-23T13:46:04.710Z,1.53
2023-02-23T13:48:57.537Z,1.43
2023-02-23T13:51:39.108Z,1.83
2023-02-23T13:54:23.107Z,1.70
2023-02-23T13:56:56.601Z,1.33
2023-02-23T13:59:28.328Z,1.50
2023-02-23T14:01:56.203Z,1.67
2023-02-23T14:04:29.589Z,2.03
2023-02-23T14:07:11.492Z,2.33
2023-02-23T14:09:44.038Z,1.07
2023-02-23T14:12:10.823Z,1.57
2023-02-23T14:14:38.855Z,1.30
2023-02-23T14:17:41.590Z,1.00
2023-02-23T14:20:13.399Z,0.80
2023-02-23T14:23:19.662Z,2.03
2023-02-23T14:26:11.201Z,0.57
2023-02-23T14:28:40.175Z,1.17
2023-02-23T14:31:13.267Z,0.83
2023-02-23T14:33:42.964Z,2.03
2023-02-23T14:36:21.861Z,1.07
2023-02-23T14:38:57.556Z,1.23
2023-02-23T14:41:38.457Z,0.87
2023-02-23T14:44:29.552Z,1.10
2023-02-23T14:47:08.836Z,1.57
2023-02-23T14:49:47.775Z,1.00
2023-02-23T14:52:36.174Z,1.83
2023-02-23T14:55:12.338Z,1.60
2023-02-23T14:57:42.441Z,0.50
2023-02-23T15:00:23.083Z,0.63
2023-02-23T15:03:01.475Z,1.77
2023-02-23T15:05:35.721Z,1.20
2023-02-23T15:08:08.317Z,1.60
2023-02-23T15:10:38.433Z,1.13
2023-02-23T15:13:16.740Z,1.27
2023-02-23T15:15:46.089Z,1.20
2023-02-23T15:18:30.534Z,1.00
2023-02-23T15:20:57.394Z,1.20
2023-02-23T15:23:24.480Z,1.27
2023-02-23T15:25:52.852Z,1.27
2023-02-23T15:28:33.098Z,0.90
2023-02-23T15:31:02.187Z,1.17
2023-02-23T15:33:29.242Z,1.53
2023-02-23T15:36:19.783Z,1.30
2023-02-23T15:38:49.631Z,1.30
2023-02-23T15:41:23.109Z,1.70
2023-02-23T15:43:50.187Z,1.70
2023-02-23T15:46:27.724Z,1.13
2023-02-23T15:48:58.903Z,2.40
2023-02-23T15:51:39.902Z,2.30
2023-02-23T15:54:29.718Z,1.60
2023-02-23T15:57:02.085Z,1.00
2023-02-23T15:59:34.777Z,2.47
2023-02-23T16:02:03.212Z,2.17
2023-02-23T16:04:36.735Z,2.50
2023-02-23T16:07:19.486Z,1.47
2023-02-23T16:09:55.326Z,1.13
2023-02-23T16:12:35.831Z,1.37
2023-02-23T16:15:21.142Z,1.50
2023-02-23T16:17:53.249Z,1.60
2023-02-23T16:20:41.634Z,1.63
2023-02-23T16:23:34.354Z,1.00
2023-02-23T16:26:41.057Z,1.00
2023-02-23T16:29:13.691Z,1.33
2023-02-23T16:31:46.467Z,1.50
2023-02-23T16:34:31.437Z,1.03
2023-02-23T16:37:00.634Z,1.90
2023-02-23T16:39:34.229Z,2.03
2023-02-23T16:42:01.143Z,1.20
2023-02-23T16:44:41.446Z,1.60
2023-02-23T16:47:09.585Z,1.37
2023-02-23T16:49:36.544Z,1.17
2023-02-23T16:52:12.839Z,2.20
2023-02-23T16:54:39.684Z,1.50
2023-02-23T16:57:18.966Z,2.90
2023-02-23T16:59:50.637Z,1.80
2023-02-23T17:02:19.073Z,1.33
2023-02-23T17:04:49.822Z,2.30
2023-02-23T17:07:17.407Z,1.50
2023-02-23T17:09:44.414Z,1.60
2023-02-23T17:12:13.922Z,1.53
2023-02-23T17:14:40.775Z,0.97
2023-02-23T17:17:15.521Z,2.73
2023-02-23T17:19:44.143Z,1.07
2023-02-23T17:22:12.500Z,2.13
2023-02-23T17:24:43.368Z,2.00
2023-02-23T17:27:11.536Z,2.07
2023-02-23T17:29:38.592Z,1.30
2023-02-23T17:32:05.906Z,2.00
2023-02-23T17:34:32.973Z,2.47
2023-02-23T17:36:59.853Z,3.30
2023-02-23T17:39:28.820Z,2.40
2023-02-23T17:41:56.075Z,2.20
2023-02-23T17:44:23.001Z,3.83
2023-02-23T17:46:49.882Z,3.83
2023-02-23T17:49:16.775Z,2.40
2023-02-23T17:51:43.726Z,2.43
2023-02-23T17:54:10.616Z,2.63
2023-02-23T17:56:37.754Z,2.70
2023-02-23T17:59:05.141Z,1.63
2023-02-23T18:01:32.034Z,3.23
2023-02-23T18:04:00.194Z,2.73
2023-02-23T18:06:27.871Z,2.93
2023-02-23T18:08:54.813Z,2.80
2023-02-23T18:11:21.665Z,2.70
2023-02-23T18:13:51.174Z,2.23
2023-02-23T18:16:19.153Z,2.37
2023-02-23T18:18:48.433Z,2.20
2023-02-23T18:21:18.646Z,1.43
2023-02-23T18:23:45.964Z,1.53
2023-02-23T18:26:16.100Z,1.60
2023-02-23T18:28:45.954Z,2.67
2023-02-23T18:31:19.577Z,2.43
2023-02-23T18:33:47.881Z,3.40
2023-02-23T18:36:20.990Z,1.30
2023-02-23T18:38:48.035Z,2.43
2023-02-23T18:41:15.017Z,2.00
2023-02-23T18:43:41.959Z,2.80
2023-02-23T18:46:09.777Z,1.40
2023-02-23T18:48:38.190Z,3.43
2023-02-23T18:51:07.097Z,2.30
2023-02-23T18:53:37.294Z,2.57
2023-02-23T18:56:16.360Z,2.10
2023-02-23T18:58:45.238Z,1.73
2023-02-23T19:01:18.099Z,2.93
2023-02-23T19:03:46.349Z,1.60
2023-02-23T19:06:15.932Z,1.70
2023-02-23T19:08:43.811Z,2.80
2023-02-23T19:11:11.852Z,2.17
2023-02-23T19:13:38.686Z,2.57
2023-02-23T19:16:08.946Z,3.50
2023-02-23T19:18:36.370Z,2.80
2023-02-23T19:21:04.660Z,2.90
2023-02-23T19:23:31.708Z,3.17
2023-02-23T19:26:02.293Z,2.40
2023-02-23T19:28:29.362Z,3.87
2023-02-23T19:31:10.475Z,3.07
2023-02-23T19:33:40.180Z,1.93
2023-02-23T19:36:09.629Z,4.13
2023-02-23T19:38:37.344Z,3.07
2023-02-23T19:41:07.987Z,3.53
2023-02-23T19:43:35.005Z,4.63
2023-02-23T19:46:06.427Z,2.63
2023-02-23T19:48:34.637Z,2.43
2023-02-23T19:51:01.742Z,3.13
2023-02-23T19:53:29.548Z,2.47
2023-02-23T19:56:05.314Z,3.17
2023-02-23T19:58:32.463Z,4.10
2023-02-23T20:01:07.990Z,4.13
2023-02-23T20:03:35.667Z,3.87
2023-02-23T20:06:07.969Z,3.03
2023-02-23T20:08:34.835Z,4.53
2023-02-23T20:11:05.985Z,4.03
2023-02-23T20:13:33.057Z,4.27
2023-02-23T20:16:04.143Z,3.20
2023-02-23T20:18:33.635Z,3.27
2023-02-23T20:21:00.537Z,2.47
2023-02-23T20:23:27.368Z,3.23
2023-02-23T20:25:54.208Z,3.67
2023-02-23T20:28:21.034Z,2.40
2023-02-23T20:30:48.213Z,3.57
2023-02-23T20:33:15.235Z,3.53
2023-02-23T20:35:42.401Z,4.93
2023-02-23T20:38:10.014Z,3.10
2023-02-23T20:40:37.249Z,2.30
2023-02-23T20:43:04.154Z,1.93
2023-02-23T20:45:31.107Z,3.07
2023-02-23T20:47:57.970Z,2.40
2023-02-23T20:50:28.445Z,1.80
2023-02-23T20:52:55.304Z,2.50
2023-02-23T20:55:27.161Z,3.50
2023-02-23T20:57:55.542Z,4.17
2023-02-23T21:00:24.069Z,2.63
2023-02-23T21:02:55.635Z,2.50
2023-02-23T21:05:24.946Z,3.03
2023-02-23T21:07:52.029Z,2.27
2023-02-23T21:10:20.407Z,2.97
2023-02-23T21:12:47.341Z,3.80
2023-02-23T21:15:14.928Z,1.37
2023-02-23T21:17:42.124Z,2.60
2023-02-23T21:20:12.716Z,1.73
2023-02-23T21:22:39.818Z,1.90
2023-02-23T21:25:10.563Z,2.40
2023-02-23T21:27:38.500Z,2.83
2023-02-23T21:30:06.658Z,2.83
2023-02-23T21:32:41.010Z,4.00
2023-02-23T21:35:10.367Z,2.17
2023-02-23T21:37:38.776Z,2.93
2023-02-23T21:40:10.272Z,2.40
2023-02-23T21:42:38.934Z,1.47
2023-02-23T21:45:08.381Z,2.57
2023-02-23T21:47:37.037Z,3.00
2023-02-23T21:50:05.023Z,3.03
2023-02-23T21:52:32.355Z,1.53
2023-02-23T21:55:00.331Z,3.17
2023-02-23T21:57:31.047Z,1.77
2023-02-23T21:59:57.901Z,2.43
2023-02-23T22:02:31.734Z,2.47
2023-02-23T22:04:58.739Z,3.17
2023-02-23T22:07:29.203Z,2.70
2023-02-23T22:09:56.421Z,2.87
2023-02-23T22:12:23.298Z,1.97
2023-02-23T22:14:50.210Z,2.83
2023-02-23T22:17:19.331Z,2.13
2023-02-23T22:19:49.634Z,2.87
2023-02-23T22:22:20.082Z,1.87
2023-02-23T22:24:48.920Z,1.83
2023-02-23T22:27:16.509Z,2.17
2023-02-23T22:29:43.369Z,3.20
2023-02-23T22:32:10.790Z,2.10
2023-02-23T22:34:38.248Z,2.57
2023-02-23T22:37:05.097Z,2.20
2023-02-23T22:39:33.403Z,1.80
2023-02-23T22:42:00.230Z,2.10
2023-02-23T22:44:28.296Z,2.83
2023-02-23T22:46:55.166Z,1.83
2023-02-23T22:49:22.013Z,1.90
2023-02-23T22:51:50.597Z,1.33
2023-02-23T22:54:17.930Z,1.60
2023-02-23T22:56:46.676Z,1.83
2023-02-23T22:59:17.463Z,2.23
2023-02-23T23:01:44.598Z,2.17
2023-02-23T23:04:11.438Z,2.13
2023-02-23T23:06:40.929Z,1.03
2023-02-23T23:09:11.737Z,0.90
2023-02-23T23:11:42.334Z,1.80
2023-02-23T23:14:11.371Z,1.53
2023-02-23T23:16:47.852Z,1.37
2023-02-23T23:19:18.151Z,1.50
2023-02-23T23:21:47.608Z,1.73
2023-02-23T23:24:15.619Z,1.37
2023-02-23T23:26:44.406Z,2.00
2023-02-23T23:29:14.412Z,2.17
2023-02-23T23:31:45.673Z,2.03
2023-02-23T23:34:16.729Z,1.67
2023-02-23T23:36:53.272Z,1.57
2023-02-23T23:39:22.676Z,1.30
2023-02-23T23:41:50.398Z,1.40
2023-02-23T23:44:23.186Z,2.37
2023-02-23T23:46:50.985Z,1.27
2023-02-23T23:49:23.315Z,1.50
2023-02-23T23:51:52.400Z,2.30
2023-02-23T23:54:26.258Z,1.87
2023-02-23T23:56:53.287Z,1.70
2023-02-23T23:59:23.434Z,1.47
